LHR weather

London Heathrow Airport
London, England, United Kingdom

Public forecast

Using degrees Celsius for public forecast. Weather courtesy of forecast.io.

METAR (pilot weather report)

Retrieved 2019/01/21 13:50 UTC (30 minutes ago):

EGLL 211350Z AUTO 24006KT 190V260 9999 BKN027 05/M00 Q1021 NOSIG

TAF (pilot weather forecast)

Retrieved 2019/01/21 12:00 UTC (2 hours ago):

TAF EGLL 211100Z 2112/2218 21004KT 4000 HZ SCT030 BECMG 2112/2115 6000 NSW TEMPO 2112/2123 9999 TEMPO 2123/2205 4000 RA BKN012 PROB30 TEMPO 2201/2205 BKN008 BECMG 2203/2206 27010KT 9999 TEMPO 2213/2218 6000 -SHRASN BKN012 PROB40 TEMPO 2213/2218 2000 SHRASN BKN006